sensor_id;sensor_type;location;lat;lon;timestamp;temperature;humidity
16863;DHT22;52193;48.216;-1.698;2022-10-17T00:01:40;19.90;99.90
16863;DHT22;52193;48.216;-1.698;2022-10-17T00:04:07;20.00;99.90
16863;DHT22;52193;48.216;-1.698;2022-10-17T00:06:34;20.00;99.90
16863;DHT22;52193;48.216;-1.698;2022-10-17T00:09:01;19.90;99.90
16863;DHT22;52193;48.216;-1.698;2022-10-17T00:11:29;19.90;99.90
16863;DHT22;52193;48.216;-1.698;2022-10-17T00:13:56;19.90;99.90
16863;DHT22;52193;48.216;-1.698;2022-10-17T00:16:24;19.90;99.90
16863;DHT22;52193;48.216;-1.698;2022-10-17T00:18:52;19.90;99.90
16863;DHT22;52193;48.216;-1.698;2022-10-17T00:21:19;19.90;99.90
16863;DHT22;52193;48.216;-1.698;2022-10-17T00:23:46;19.90;99.90
16863;DHT22;52193;48.216;-1.698;2022-10-17T00:26:14;19.80;99.90
16863;DHT22;52193;48.216;-1.698;2022-10-17T00:28:45;19.80;99.90
16863;DHT22;52193;48.216;-1.698;2022-10-17T00:31:12;19.80;99.90
16863;DHT22;52193;48.216;-1.698;2022-10-17T00:33:39;19.80;99.90
16863;DHT22;52193;48.216;-1.698;2022-10-17T00:36:10;19.80;99.90
16863;DHT22;52193;48.216;-1.698;2022-10-17T00:38:38;19.90;99.90
16863;DHT22;52193;48.216;-1.698;2022-10-17T00:41:06;19.90;99.90
16863;DHT22;52193;48.216;-1.698;2022-10-17T00:43:53;19.90;99.90
16863;DHT22;52193;48.216;-1.698;2022-10-17T00:46:22;19.80;99.90
16863;DHT22;52193;48.216;-1.698;2022-10-17T00:48:52;19.90;99.90
16863;DHT22;52193;48.216;-1.698;2022-10-17T00:51:24;19.90;99.90
16863;DHT22;52193;48.216;-1.698;2022-10-17T00:53:54;19.90;99.90
16863;DHT22;52193;48.216;-1.698;2022-10-17T00:56:22;19.80;99.90
16863;DHT22;52193;48.216;-1.698;2022-10-17T00:58:50;19.80;99.90
16863;DHT22;52193;48.216;-1.698;2022-10-17T01:01:17;19.80;99.90
16863;DHT22;52193;48.216;-1.698;2022-10-17T01:03:44;19.70;99.90
16863;DHT22;52193;48.216;-1.698;2022-10-17T01:06:11;19.70;99.90
16863;DHT22;52193;48.216;-1.698;2022-10-17T01:08:38;19.60;99.90
16863;DHT22;52193;48.216;-1.698;2022-10-17T01:11:12;19.60;99.90
16863;DHT22;52193;48.216;-1.698;2022-10-17T01:13:45;19.60;99.90
16863;DHT22;52193;48.216;-1.698;2022-10-17T01:16:18;19.50;99.90
16863;DHT22;52193;48.216;-1.698;2022-10-17T01:18:59;19.50;99.90
16863;DHT22;52193;48.216;-1.698;2022-10-17T01:21:43;19.60;99.90
16863;DHT22;52193;48.216;-1.698;2022-10-17T01:24:41;19.60;99.90
16863;DHT22;52193;48.216;-1.698;2022-10-17T01:27:42;19.60;99.90
16863;DHT22;52193;48.216;-1.698;2022-10-17T01:33:26;19.60;99.90
16863;DHT22;52193;48.216;-1.698;2022-10-17T01:35:59;19.60;99.90
16863;DHT22;52193;48.216;-1.698;2022-10-17T01:38:32;19.60;99.90
16863;DHT22;52193;48.216;-1.698;2022-10-17T01:41:02;19.60;99.90
16863;DHT22;52193;48.216;-1.698;2022-10-17T01:43:36;19.60;99.90
16863;DHT22;52193;48.216;-1.698;2022-10-17T01:46:09;19.60;99.90
16863;DHT22;52193;48.216;-1.698;2022-10-17T01:48:42;19.60;99.90
16863;DHT22;52193;48.216;-1.698;2022-10-17T01:51:14;19.50;99.90
16863;DHT22;52193;48.216;-1.698;2022-10-17T01:53:48;19.60;99.90
16863;DHT22;52193;48.216;-1.698;2022-10-17T01:56:17;19.70;99.90
16863;DHT22;52193;48.216;-1.698;2022-10-17T01:58:49;19.70;99.90
16863;DHT22;52193;48.216;-1.698;2022-10-17T02:01:17;19.70;99.90
16863;DHT22;52193;48.216;-1.698;2022-10-17T02:03:49;19.70;99.90
16863;DHT22;52193;48.216;-1.698;2022-10-17T02:06:17;19.60;99.90
16863;DHT22;52193;48.216;-1.698;2022-10-17T02:08:45;19.60;99.90
16863;DHT22;52193;48.216;-1.698;2022-10-17T02:11:15;19.70;99.90
16863;DHT22;52193;48.216;-1.698;2022-10-17T02:13:56;19.70;99.90
16863;DHT22;52193;48.216;-1.698;2022-10-17T02:16:33;19.70;99.90
16863;DHT22;52193;48.216;-1.698;2022-10-17T02:19:25;19.70;99.90
16863;DHT22;52193;48.216;-1.698;2022-10-17T02:22:10;19.70;99.90
16863;DHT22;52193;48.216;-1.698;2022-10-17T02:24:44;19.70;99.90
16863;DHT22;52193;48.216;-1.698;2022-10-17T02:27:15;19.70;99.90
16863;DHT22;52193;48.216;-1.698;2022-10-17T02:29:47;19.70;99.90
16863;DHT22;52193;48.216;-1.698;2022-10-17T02:32:20;19.80;99.90
16863;DHT22;52193;48.216;-1.698;2022-10-17T02:34:54;19.80;99.90
16863;DHT22;52193;48.216;-1.698;2022-10-17T02:37:24;19.90;99.90
16863;DHT22;52193;48.216;-1.698;2022-10-17T02:39:53;19.80;99.90
16863;DHT22;52193;48.216;-1.698;2022-10-17T02:42:22;19.80;99.90
16863;DHT22;52193;48.216;-1.698;2022-10-17T02:44:49;19.80;99.90
16863;DHT22;52193;48.216;-1.698;2022-10-17T02:47:20;19.80;99.90
16863;DHT22;52193;48.216;-1.698;2022-10-17T02:49:51;19.80;99.90
16863;DHT22;52193;48.216;-1.698;2022-10-17T02:52:25;19.80;99.90
16863;DHT22;52193;48.216;-1.698;2022-10-17T02:54:57;19.80;99.90
16863;DHT22;52193;48.216;-1.698;2022-10-17T02:57:28;19.80;99.90
16863;DHT22;52193;48.216;-1.698;2022-10-17T02:59:57;19.80;99.90
16863;DHT22;52193;48.216;-1.698;2022-10-17T03:02:26;19.80;99.90
16863;DHT22;52193;48.216;-1.698;2022-10-17T03:04:55;19.80;99.90
16863;DHT22;52193;48.216;-1.698;2022-10-17T03:07:22;19.80;99.90
16863;DHT22;52193;48.216;-1.698;2022-10-17T03:09:49;19.90;99.90
16863;DHT22;52193;48.216;-1.698;2022-10-17T03:12:16;19.80;99.90
16863;DHT22;52193;48.216;-1.698;2022-10-17T03:14:42;19.80;99.90
16863;DHT22;52193;48.216;-1.698;2022-10-17T03:17:09;19.80;99.90
16863;DHT22;52193;48.216;-1.698;2022-10-17T03:19:36;19.90;99.90
16863;DHT22;52193;48.216;-1.698;2022-10-17T03:22:05;19.80;99.90
16863;DHT22;52193;48.216;-1.698;2022-10-17T03:24:32;19.80;99.90
16863;DHT22;52193;48.216;-1.698;2022-10-17T03:26:58;19.80;99.90
16863;DHT22;52193;48.216;-1.698;2022-10-17T03:29:25;19.80;99.90
16863;DHT22;52193;48.216;-1.698;2022-10-17T03:31:52;19.90;99.90
16863;DHT22;52193;48.216;-1.698;2022-10-17T03:34:19;19.90;99.90
16863;DHT22;52193;48.216;-1.698;2022-10-17T03:36:46;19.80;99.90
16863;DHT22;52193;48.216;-1.698;2022-10-17T03:39:15;19.90;99.90
16863;DHT22;52193;48.216;-1.698;2022-10-17T03:41:41;19.80;99.90
16863;DHT22;52193;48.216;-1.698;2022-10-17T03:44:08;19.90;99.90
16863;DHT22;52193;48.216;-1.698;2022-10-17T03:46:35;19.90;99.90
16863;DHT22;52193;48.216;-1.698;2022-10-17T03:49:02;20.00;99.90
16863;DHT22;52193;48.216;-1.698;2022-10-17T03:51:30;19.80;99.90
16863;DHT22;52193;48.216;-1.698;2022-10-17T03:53:58;19.80;99.90
16863;DHT22;52193;48.216;-1.698;2022-10-17T03:56:26;19.80;99.90
16863;DHT22;52193;48.216;-1.698;2022-10-17T03:58:54;19.80;99.90
16863;DHT22;52193;48.216;-1.698;2022-10-17T04:01:21;19.90;99.90
16863;DHT22;52193;48.216;-1.698;2022-10-17T04:03:48;19.90;99.90
16863;DHT22;52193;48.216;-1.698;2022-10-17T04:06:16;19.80;99.90
16863;DHT22;52193;48.216;-1.698;2022-10-17T04:08:43;19.80;99.90
16863;DHT22;52193;48.216;-1.698;2022-10-17T04:11:13;19.80;99.90
16863;DHT22;52193;48.216;-1.698;2022-10-17T04:13:42;19.80;99.90
16863;DHT22;52193;48.216;-1.698;2022-10-17T04:16:11;19.80;99.90
16863;DHT22;52193;48.216;-1.698;2022-10-17T04:18:38;19.80;99.90
16863;DHT22;52193;48.216;-1.698;2022-10-17T04:21:06;19.80;99.90
16863;DHT22;52193;48.216;-1.698;2022-10-17T04:23:33;19.90;99.90
16863;DHT22;52193;48.216;-1.698;2022-10-17T04:26:01;19.80;99.90
16863;DHT22;52193;48.216;-1.698;2022-10-17T04:28:28;19.80;99.90
16863;DHT22;52193;48.216;-1.698;2022-10-17T04:30:58;19.70;99.90
16863;DHT22;52193;48.216;-1.698;2022-10-17T04:33:25;19.70;99.90
16863;DHT22;52193;48.216;-1.698;2022-10-17T04:35:56;19.70;99.90
16863;DHT22;52193;48.216;-1.698;2022-10-17T04:38:23;19.70;99.90
16863;DHT22;52193;48.216;-1.698;2022-10-17T04:40:50;19.60;99.90
16863;DHT22;52193;48.216;-1.698;2022-10-17T04:43:17;19.60;99.90
16863;DHT22;52193;48.216;-1.698;2022-10-17T04:45:45;19.50;99.90
16863;DHT22;52193;48.216;-1.698;2022-10-17T04:48:13;19.40;99.90
16863;DHT22;52193;48.216;-1.698;2022-10-17T04:50:40;19.40;99.90
16863;DHT22;52193;48.216;-1.698;2022-10-17T04:53:07;19.40;99.90
16863;DHT22;52193;48.216;-1.698;2022-10-17T04:55:36;19.40;99.90
16863;DHT22;52193;48.216;-1.698;2022-10-17T04:58:04;19.30;99.90
16863;DHT22;52193;48.216;-1.698;2022-10-17T05:00:31;19.40;99.90
16863;DHT22;52193;48.216;-1.698;2022-10-17T05:02:58;19.40;99.90
16863;DHT22;52193;48.216;-1.698;2022-10-17T05:05:26;19.30;99.90
16863;DHT22;52193;48.216;-1.698;2022-10-17T05:07:53;19.30;99.90
16863;DHT22;52193;48.216;-1.698;2022-10-17T05:10:20;19.30;99.90
16863;DHT22;52193;48.216;-1.698;2022-10-17T05:12:47;19.30;99.90
16863;DHT22;52193;48.216;-1.698;2022-10-17T05:15:14;19.30;99.90
16863;DHT22;52193;48.216;-1.698;2022-10-17T05:17:42;19.30;99.90
16863;DHT22;52193;48.216;-1.698;2022-10-17T05:20:09;19.40;99.90
16863;DHT22;52193;48.216;-1.698;2022-10-17T05:22:38;19.30;99.90
16863;DHT22;52193;48.216;-1.698;2022-10-17T05:25:06;19.30;99.90
16863;DHT22;52193;48.216;-1.698;2022-10-17T05:27:33;19.30;99.90
16863;DHT22;52193;48.216;-1.698;2022-10-17T05:30:00;19.40;99.90
16863;DHT22;52193;48.216;-1.698;2022-10-17T05:32:27;19.40;99.90
16863;DHT22;52193;48.216;-1.698;2022-10-17T05:34:54;19.30;99.90
16863;DHT22;52193;48.216;-1.698;2022-10-17T05:37:20;19.30;99.90
16863;DHT22;52193;48.216;-1.698;2022-10-17T05:39:49;19.40;99.90
16863;DHT22;52193;48.216;-1.698;2022-10-17T05:42:16;19.40;99.90
16863;DHT22;52193;48.216;-1.698;2022-10-17T05:44:43;19.40;99.90
16863;DHT22;52193;48.216;-1.698;2022-10-17T05:47:10;19.40;99.90
16863;DHT22;52193;48.216;-1.698;2022-10-17T05:49:37;19.40;99.90
16863;DHT22;52193;48.216;-1.698;2022-10-17T05:52:04;19.40;99.90
16863;DHT22;52193;48.216;-1.698;2022-10-17T05:54:31;19.40;99.90
16863;DHT22;52193;48.216;-1.698;2022-10-17T05:56:59;19.40;99.90
16863;DHT22;52193;48.216;-1.698;2022-10-17T05:59:26;19.30;99.90
16863;DHT22;52193;48.216;-1.698;2022-10-17T06:01:54;19.30;99.90
16863;DHT22;52193;48.216;-1.698;2022-10-17T06:04:21;19.10;99.90
16863;DHT22;52193;48.216;-1.698;2022-10-17T06:06:48;19.10;99.90
16863;DHT22;52193;48.216;-1.698;2022-10-17T06:09:14;19.10;99.90
16863;DHT22;52193;48.216;-1.698;2022-10-17T06:11:41;19.10;99.90
16863;DHT22;52193;48.216;-1.698;2022-10-17T06:14:10;19.10;99.90
16863;DHT22;52193;48.216;-1.698;2022-10-17T06:16:37;19.10;99.90
16863;DHT22;52193;48.216;-1.698;2022-10-17T06:19:04;19.20;99.90
16863;DHT22;52193;48.216;-1.698;2022-10-17T06:21:31;19.20;99.90
16863;DHT22;52193;48.216;-1.698;2022-10-17T06:24:01;19.20;99.90
16863;DHT22;52193;48.216;-1.698;2022-10-17T06:26:28;19.30;99.90
16863;DHT22;52193;48.216;-1.698;2022-10-17T06:28:55;19.20;99.90
16863;DHT22;52193;48.216;-1.698;2022-10-17T06:31:23;19.20;99.90
16863;DHT22;52193;48.216;-1.698;2022-10-17T06:33:50;19.20;99.90
16863;DHT22;52193;48.216;-1.698;2022-10-17T06:36:17;19.20;99.90
16863;DHT22;52193;48.216;-1.698;2022-10-17T06:38:44;19.10;99.90
16863;DHT22;52193;48.216;-1.698;2022-10-17T06:41:12;19.20;99.90
16863;DHT22;52193;48.216;-1.698;2022-10-17T06:43:40;19.20;99.90
16863;DHT22;52193;48.216;-1.698;2022-10-17T06:46:10;19.10;99.90
16863;DHT22;52193;48.216;-1.698;2022-10-17T06:48:38;19.10;99.90
16863;DHT22;52193;48.216;-1.698;2022-10-17T06:51:06;19.20;99.90
16863;DHT22;52193;48.216;-1.698;2022-10-17T06:53:34;19.20;99.90
16863;DHT22;52193;48.216;-1.698;2022-10-17T06:56:02;19.20;99.90
16863;DHT22;52193;48.216;-1.698;2022-10-17T06:58:31;19.30;99.90
16863;DHT22;52193;48.216;-1.698;2022-10-17T07:00:59;19.30;99.90
16863;DHT22;52193;48.216;-1.698;2022-10-17T07:03:26;19.30;99.90
16863;DHT22;52193;48.216;-1.698;2022-10-17T07:05:54;19.30;99.90
16863;DHT22;52193;48.216;-1.698;2022-10-17T07:08:22;19.20;99.90
16863;DHT22;52193;48.216;-1.698;2022-10-17T07:10:49;19.30;99.90
16863;DHT22;52193;48.216;-1.698;2022-10-17T07:13:17;19.20;99.90
16863;DHT22;52193;48.216;-1.698;2022-10-17T07:15:44;19.20;99.90
16863;DHT22;52193;48.216;-1.698;2022-10-17T07:18:12;19.20;99.90
16863;DHT22;52193;48.216;-1.698;2022-10-17T07:20:38;19.20;99.90
16863;DHT22;52193;48.216;-1.698;2022-10-17T07:23:07;19.30;99.90
16863;DHT22;52193;48.216;-1.698;2022-10-17T07:25:35;19.30;99.90
16863;DHT22;52193;48.216;-1.698;2022-10-17T07:28:03;19.20;99.90
16863;DHT22;52193;48.216;-1.698;2022-10-17T07:30:30;19.20;99.90
16863;DHT22;52193;48.216;-1.698;2022-10-17T07:32:57;19.20;99.90
16863;DHT22;52193;48.216;-1.698;2022-10-17T07:35:24;19.20;99.90
16863;DHT22;52193;48.216;-1.698;2022-10-17T07:37:50;19.20;99.90
16863;DHT22;52193;48.216;-1.698;2022-10-17T07:40:19;19.10;99.90
16863;DHT22;52193;48.216;-1.698;2022-10-17T07:42:46;19.00;99.90
16863;DHT22;52193;48.216;-1.698;2022-10-17T07:45:13;19.00;99.90
16863;DHT22;52193;48.216;-1.698;2022-10-17T07:47:40;19.00;99.90
16863;DHT22;52193;48.216;-1.698;2022-10-17T07:50:07;19.00;99.90
16863;DHT22;52193;48.216;-1.698;2022-10-17T07:52:35;18.90;99.90
16863;DHT22;52193;48.216;-1.698;2022-10-17T07:55:02;18.90;99.90
16863;DHT22;52193;48.216;-1.698;2022-10-17T07:57:30;18.90;99.90
16863;DHT22;52193;48.216;-1.698;2022-10-17T07:59:57;18.90;99.90
16863;DHT22;52193;48.216;-1.698;2022-10-17T08:02:25;19.00;99.90
16863;DHT22;52193;48.216;-1.698;2022-10-17T08:04:53;19.00;99.90
16863;DHT22;52193;48.216;-1.698;2022-10-17T08:07:20;19.10;99.90
16863;DHT22;52193;48.216;-1.698;2022-10-17T08:09:47;19.10;99.90
16863;DHT22;52193;48.216;-1.698;2022-10-17T08:12:14;19.10;99.90
16863;DHT22;52193;48.216;-1.698;2022-10-17T08:14:43;19.20;99.90
16863;DHT22;52193;48.216;-1.698;2022-10-17T08:17:10;19.20;99.90
16863;DHT22;52193;48.216;-1.698;2022-10-17T08:19:37;19.20;99.90
16863;DHT22;52193;48.216;-1.698;2022-10-17T08:22:05;19.20;99.90
16863;DHT22;52193;48.216;-1.698;2022-10-17T08:24:32;19.20;99.90
16863;DHT22;52193;48.216;-1.698;2022-10-17T08:26:59;19.30;99.90
16863;DHT22;52193;48.216;-1.698;2022-10-17T08:29:26;19.20;99.90
16863;DHT22;52193;48.216;-1.698;2022-10-17T08:31:55;19.10;99.90
16863;DHT22;52193;48.216;-1.698;2022-10-17T08:34:22;19.20;99.90
16863;DHT22;52193;48.216;-1.698;2022-10-17T08:36:49;19.20;99.90
16863;DHT22;52193;48.216;-1.698;2022-10-17T08:39:16;19.30;99.90
16863;DHT22;52193;48.216;-1.698;2022-10-17T08:41:52;19.30;99.90
16863;DHT22;52193;48.216;-1.698;2022-10-17T08:44:28;19.40;99.90
16863;DHT22;52193;48.216;-1.698;2022-10-17T08:47:02;19.30;99.90
16863;DHT22;52193;48.216;-1.698;2022-10-17T08:49:37;19.40;99.90
16863;DHT22;52193;48.216;-1.698;2022-10-17T08:52:10;19.40;99.90
16863;DHT22;52193;48.216;-1.698;2022-10-17T08:54:41;19.40;99.90
16863;DHT22;52193;48.216;-1.698;2022-10-17T08:57:11;19.50;99.90
16863;DHT22;52193;48.216;-1.698;2022-10-17T08:59:40;19.50;99.90
16863;DHT22;52193;48.216;-1.698;2022-10-17T09:02:26;19.50;99.90
16863;DHT22;52193;48.216;-1.698;2022-10-17T09:05:20;19.60;99.90
16863;DHT22;52193;48.216;-1.698;2022-10-17T09:07:52;19.60;99.90
16863;DHT22;52193;48.216;-1.698;2022-10-17T09:10:25;19.70;99.90
16863;DHT22;52193;48.216;-1.698;2022-10-17T09:13:03;19.70;99.90
16863;DHT22;52193;48.216;-1.698;2022-10-17T09:15:43;19.70;99.90
16863;DHT22;52193;48.216;-1.698;2022-10-17T09:18:19;19.70;99.90
16863;DHT22;52193;48.216;-1.698;2022-10-17T09:20:51;19.80;99.90
16863;DHT22;52193;48.216;-1.698;2022-10-17T09:23:22;19.80;99.90
16863;DHT22;52193;48.216;-1.698;2022-10-17T09:25:53;19.80;99.90
16863;DHT22;52193;48.216;-1.698;2022-10-17T09:28:22;19.80;99.90
16863;DHT22;52193;48.216;-1.698;2022-10-17T09:30:55;19.90;99.90
16863;DHT22;52193;48.216;-1.698;2022-10-17T09:33:27;19.90;99.90
16863;DHT22;52193;48.216;-1.698;2022-10-17T09:35:56;20.00;99.90
16863;DHT22;52193;48.216;-1.698;2022-10-17T09:38:29;20.00;99.90
16863;DHT22;52193;48.216;-1.698;2022-10-17T09:41:00;20.00;99.90
16863;DHT22;52193;48.216;-1.698;2022-10-17T09:43:27;20.00;99.90
16863;DHT22;52193;48.216;-1.698;2022-10-17T09:46:01;20.00;99.90
16863;DHT22;52193;48.216;-1.698;2022-10-17T09:48:36;20.00;99.90
16863;DHT22;52193;48.216;-1.698;2022-10-17T09:51:05;19.90;99.90
16863;DHT22;52193;48.216;-1.698;2022-10-17T09:53:33;20.00;99.90
16863;DHT22;52193;48.216;-1.698;2022-10-17T09:56:06;20.00;99.90
16863;DHT22;52193;48.216;-1.698;2022-10-17T09:58:40;20.00;99.90
16863;DHT22;52193;48.216;-1.698;2022-10-17T10:01:16;20.10;99.90
16863;DHT22;52193;48.216;-1.698;2022-10-17T10:03:45;20.00;99.90
16863;DHT22;52193;48.216;-1.698;2022-10-17T10:06:13;20.10;99.90
16863;DHT22;52193;48.216;-1.698;2022-10-17T10:08:48;20.00;99.90
16863;DHT22;52193;48.216;-1.698;2022-10-17T10:11:16;20.00;99.90
16863;DHT22;52193;48.216;-1.698;2022-10-17T10:13:46;20.10;99.90
16863;DHT22;52193;48.216;-1.698;2022-10-17T10:16:21;20.20;99.90
16863;DHT22;52193;48.216;-1.698;2022-10-17T10:18:51;20.30;99.90
16863;DHT22;52193;48.216;-1.698;2022-10-17T10:21:20;20.40;99.90
16863;DHT22;52193;48.216;-1.698;2022-10-17T10:24:03;20.40;99.90
16863;DHT22;52193;48.216;-1.698;2022-10-17T10:26:34;20.40;99.90
16863;DHT22;52193;48.216;-1.698;2022-10-17T10:29:06;20.30;99.90
16863;DHT22;52193;48.216;-1.698;2022-10-17T10:31:44;20.30;99.90
16863;DHT22;52193;48.216;-1.698;2022-10-17T10:34:19;20.20;99.90
16863;DHT22;52193;48.216;-1.698;2022-10-17T10:36:54;20.30;99.90
16863;DHT22;52193;48.216;-1.698;2022-10-17T10:39:44;20.20;99.90
16863;DHT22;52193;48.216;-1.698;2022-10-17T10:42:25;20.20;99.90
16863;DHT22;52193;48.216;-1.698;2022-10-17T10:44:53;20.20;99.90
16863;DHT22;52193;48.216;-1.698;2022-10-17T10:47:23;20.30;99.90
16863;DHT22;52193;48.216;-1.698;2022-10-17T10:50:05;20.30;99.90
16863;DHT22;52193;48.216;-1.698;2022-10-17T10:52:36;20.30;99.90
16863;DHT22;52193;48.216;-1.698;2022-10-17T10:55:22;20.40;99.90
16863;DHT22;52193;48.216;-1.698;2022-10-17T10:57:52;20.40;99.90
16863;DHT22;52193;48.216;-1.698;2022-10-17T11:00:24;20.50;99.90
16863;DHT22;52193;48.216;-1.698;2022-10-17T11:02:58;20.50;99.90
16863;DHT22;52193;48.216;-1.698;2022-10-17T11:05:36;20.60;99.90
16863;DHT22;52193;48.216;-1.698;2022-10-17T11:08:15;20.60;99.90
16863;DHT22;52193;48.216;-1.698;2022-10-17T11:10:55;20.50;99.90
16863;DHT22;52193;48.216;-1.698;2022-10-17T11:13:25;20.60;99.90
16863;DHT22;52193;48.216;-1.698;2022-10-17T11:15:58;20.50;99.90
16863;DHT22;52193;48.216;-1.698;2022-10-17T11:18:32;20.50;99.90
16863;DHT22;52193;48.216;-1.698;2022-10-17T11:21:08;20.60;99.90
16863;DHT22;52193;48.216;-1.698;2022-10-17T11:23:40;20.70;99.90
16863;DHT22;52193;48.216;-1.698;2022-10-17T11:26:12;20.70;99.90
16863;DHT22;52193;48.216;-1.698;2022-10-17T11:28:41;20.70;99.90
16863;DHT22;52193;48.216;-1.698;2022-10-17T11:31:11;20.80;99.90
16863;DHT22;52193;48.216;-1.698;2022-10-17T11:33:49;20.90;99.90
16863;DHT22;52193;48.216;-1.698;2022-10-17T11:36:22;20.90;99.90
16863;DHT22;52193;48.216;-1.698;2022-10-17T11:38:52;20.80;99.90
16863;DHT22;52193;48.216;-1.698;2022-10-17T11:41:26;20.80;99.90
16863;DHT22;52193;48.216;-1.698;2022-10-17T11:43:57;20.80;99.90
16863;DHT22;52193;48.216;-1.698;2022-10-17T11:46:27;20.90;99.90
16863;DHT22;52193;48.216;-1.698;2022-10-17T11:49:00;20.80;99.90
16863;DHT22;52193;48.216;-1.698;2022-10-17T11:51:37;20.80;99.90
16863;DHT22;52193;48.216;-1.698;2022-10-17T11:54:10;20.90;99.90
16863;DHT22;52193;48.216;-1.698;2022-10-17T11:56:42;20.90;99.90
16863;DHT22;52193;48.216;-1.698;2022-10-17T11:59:30;21.00;99.90
16863;DHT22;52193;48.216;-1.698;2022-10-17T12:02:10;21.00;99.90
16863;DHT22;52193;48.216;-1.698;2022-10-17T12:04:47;21.10;99.90
16863;DHT22;52193;48.216;-1.698;2022-10-17T12:07:26;21.10;99.90
16863;DHT22;52193;48.216;-1.698;2022-10-17T12:10:00;21.20;99.90
16863;DHT22;52193;48.216;-1.698;2022-10-17T12:12:32;21.20;99.90
16863;DHT22;52193;48.216;-1.698;2022-10-17T12:15:27;21.30;99.90
16863;DHT22;52193;48.216;-1.698;2022-10-17T12:17:55;21.20;99.90
16863;DHT22;52193;48.216;-1.698;2022-10-17T12:20:29;21.30;99.90
16863;DHT22;52193;48.216;-1.698;2022-10-17T12:23:13;21.30;99.90
16863;DHT22;52193;48.216;-1.698;2022-10-17T12:25:48;21.20;99.90
16863;DHT22;52193;48.216;-1.698;2022-10-17T12:28:20;21.30;99.90
16863;DHT22;52193;48.216;-1.698;2022-10-17T12:30:53;21.20;99.90
16863;DHT22;52193;48.216;-1.698;2022-10-17T12:33:25;21.20;99.90
16863;DHT22;52193;48.216;-1.698;2022-10-17T12:39:42;21.40;99.90
16863;DHT22;52193;48.216;-1.698;2022-10-17T12:42:31;21.40;99.90
16863;DHT22;52193;48.216;-1.698;2022-10-17T12:44:58;21.40;99.90
16863;DHT22;52193;48.216;-1.698;2022-10-17T12:47:36;21.40;99.90
16863;DHT22;52193;48.216;-1.698;2022-10-17T12:53:15;21.50;99.90
16863;DHT22;52193;48.216;-1.698;2022-10-17T12:55:45;21.40;99.90
16863;DHT22;52193;48.216;-1.698;2022-10-17T12:58:13;21.40;99.90
16863;DHT22;52193;48.216;-1.698;2022-10-17T13:00:50;21.40;99.90
16863;DHT22;52193;48.216;-1.698;2022-10-17T13:03:21;21.40;99.90
16863;DHT22;52193;48.216;-1.698;2022-10-17T13:05:51;21.40;99.90
16863;DHT22;52193;48.216;-1.698;2022-10-17T13:08:23;21.40;99.90
16863;DHT22;52193;48.216;-1.698;2022-10-17T13:10:53;21.50;99.90
16863;DHT22;52193;48.216;-1.698;2022-10-17T13:13:23;21.50;99.90
16863;DHT22;52193;48.216;-1.698;2022-10-17T13:15:54;21.50;99.90
16863;DHT22;52193;48.216;-1.698;2022-10-17T13:18:23;21.50;99.90
16863;DHT22;52193;48.216;-1.698;2022-10-17T13:20:55;21.50;99.90
16863;DHT22;52193;48.216;-1.698;2022-10-17T13:23:23;21.60;99.90
16863;DHT22;52193;48.216;-1.698;2022-10-17T13:26:09;21.60;99.90
16863;DHT22;52193;48.216;-1.698;2022-10-17T13:28:37;21.70;99.90
16863;DHT22;52193;48.216;-1.698;2022-10-17T13:31:04;21.70;99.90
16863;DHT22;52193;48.216;-1.698;2022-10-17T13:33:34;21.70;99.90
16863;DHT22;52193;48.216;-1.698;2022-10-17T13:36:05;21.70;99.90
16863;DHT22;52193;48.216;-1.698;2022-10-17T13:38:34;21.70;99.90
16863;DHT22;52193;48.216;-1.698;2022-10-17T13:41:03;21.60;99.90
16863;DHT22;52193;48.216;-1.698;2022-10-17T13:43:36;21.60;99.90
16863;DHT22;52193;48.216;-1.698;2022-10-17T13:46:03;21.70;99.90
16863;DHT22;52193;48.216;-1.698;2022-10-17T13:48:34;21.70;99.90
16863;DHT22;52193;48.216;-1.698;2022-10-17T13:51:03;21.70;99.90
16863;DHT22;52193;48.216;-1.698;2022-10-17T13:53:32;21.70;99.90
16863;DHT22;52193;48.216;-1.698;2022-10-17T13:56:04;21.70;99.90
16863;DHT22;52193;48.216;-1.698;2022-10-17T13:58:39;21.80;99.90
16863;DHT22;52193;48.216;-1.698;2022-10-17T14:01:06;21.70;99.90
16863;DHT22;52193;48.216;-1.698;2022-10-17T14:03:34;21.70;99.90
16863;DHT22;52193;48.216;-1.698;2022-10-17T14:06:10;21.70;99.90
16863;DHT22;52193;48.216;-1.698;2022-10-17T14:08:38;21.70;99.90
16863;DHT22;52193;48.216;-1.698;2022-10-17T14:11:23;21.80;99.90
16863;DHT22;52193;48.216;-1.698;2022-10-17T14:13:51;21.80;99.90
16863;DHT22;52193;48.216;-1.698;2022-10-17T14:16:20;21.80;99.90
16863;DHT22;52193;48.216;-1.698;2022-10-17T14:18:48;21.80;99.90
16863;DHT22;52193;48.216;-1.698;2022-10-17T14:21:21;21.80;99.90
16863;DHT22;52193;48.216;-1.698;2022-10-17T14:23:51;21.80;99.90
16863;DHT22;52193;48.216;-1.698;2022-10-17T14:26:21;21.70;99.90
16863;DHT22;52193;48.216;-1.698;2022-10-17T14:29:03;21.80;99.90
16863;DHT22;52193;48.216;-1.698;2022-10-17T14:31:32;21.80;99.90
16863;DHT22;52193;48.216;-1.698;2022-10-17T14:34:00;21.90;99.90
16863;DHT22;52193;48.216;-1.698;2022-10-17T14:36:39;21.90;99.90
16863;DHT22;52193;48.216;-1.698;2022-10-17T14:39:17;21.90;99.90
16863;DHT22;52193;48.216;-1.698;2022-10-17T14:41:46;21.90;99.90
16863;DHT22;52193;48.216;-1.698;2022-10-17T14:44:20;22.00;99.90
16863;DHT22;52193;48.216;-1.698;2022-10-17T14:46:52;22.00;99.90
16863;DHT22;52193;48.216;-1.698;2022-10-17T14:49:24;22.00;99.90
16863;DHT22;52193;48.216;-1.698;2022-10-17T14:52:23;22.00;99.90
16863;DHT22;52193;48.216;-1.698;2022-10-17T14:54:51;22.00;99.90
16863;DHT22;52193;48.216;-1.698;2022-10-17T14:57:23;22.00;99.90
16863;DHT22;52193;48.216;-1.698;2022-10-17T14:59:50;22.00;99.90
16863;DHT22;52193;48.216;-1.698;2022-10-17T15:02:17;22.10;99.90
16863;DHT22;52193;48.216;-1.698;2022-10-17T15:04:44;22.00;99.90
16863;DHT22;52193;48.216;-1.698;2022-10-17T15:07:13;22.00;99.90
16863;DHT22;52193;48.216;-1.698;2022-10-17T15:09:40;22.10;99.90
16863;DHT22;52193;48.216;-1.698;2022-10-17T15:12:13;22.10;99.90
16863;DHT22;52193;48.216;-1.698;2022-10-17T15:14:42;22.00;99.90
16863;DHT22;52193;48.216;-1.698;2022-10-17T15:17:12;22.10;99.90
16863;DHT22;52193;48.216;-1.698;2022-10-17T15:19:40;22.00;99.90
16863;DHT22;52193;48.216;-1.698;2022-10-17T15:22:07;22.00;99.90
16863;DHT22;52193;48.216;-1.698;2022-10-17T15:24:34;22.00;99.90
16863;DHT22;52193;48.216;-1.698;2022-10-17T15:27:01;22.00;99.90
16863;DHT22;52193;48.216;-1.698;2022-10-17T15:29:28;21.90;99.90
16863;DHT22;52193;48.216;-1.698;2022-10-17T15:31:56;21.90;99.90
16863;DHT22;52193;48.216;-1.698;2022-10-17T15:34:23;22.00;99.90
16863;DHT22;52193;48.216;-1.698;2022-10-17T15:36:50;21.90;99.90
16863;DHT22;52193;48.216;-1.698;2022-10-17T15:39:18;21.90;99.90
16863;DHT22;52193;48.216;-1.698;2022-10-17T15:41:46;21.90;99.90
16863;DHT22;52193;48.216;-1.698;2022-10-17T15:44:13;21.90;99.90
16863;DHT22;52193;48.216;-1.698;2022-10-17T15:46:41;21.90;99.90